createdAt,value
2017-08-31T00:00:48.972Z,37.3
2017-08-31T00:01:48.998Z,37.3
2017-08-31T00:02:50.942Z,37.3
2017-08-31T00:03:52.200Z,37.3
2017-08-31T00:04:49.410Z,37.3
2017-08-31T00:05:49.029Z,37.3
2017-08-31T00:06:52.365Z,37.3
2017-08-31T00:07:49.285Z,37.3
2017-08-31T00:08:51.073Z,37.3
2017-08-31T00:09:49.227Z,37.3
2017-08-31T00:10:49.789Z,37.3
2017-08-31T00:11:52.701Z,37.3
2017-08-31T00:12:52.699Z,37.3
2017-08-31T00:13:51.500Z,37.3
2017-08-31T00:14:52.957Z,37.3
2017-08-31T00:15:49.707Z,37.3
2017-08-31T00:16:53.160Z,37.3
2017-08-31T00:17:49.585Z,37.3
2017-08-31T00:18:49.896Z,37.3
2017-08-31T00:19:53.042Z,37.3
2017-08-31T00:20:51.722Z,37.3
2017-08-31T00:21:53.375Z,37.3
2017-08-31T00:22:50.187Z,37.3
2017-08-31T00:23:53.294Z,37.3
2017-08-31T00:24:51.908Z,37.3
2017-08-31T00:25:50.098Z,37.3
2017-08-31T00:26:50.085Z,37.3
2017-08-31T00:27:50.134Z,37.3
2017-08-31T00:28:52.319Z,37.3
2017-08-31T00:29:50.458Z,37.3
2017-08-31T00:30:50.329Z,37.3
2017-08-31T00:31:52.454Z,37.3
2017-08-31T00:32:50.405Z,37.2
2017-08-31T00:33:53.833Z,37.2
2017-08-31T00:34:51.063Z,37.2
2017-08-31T00:35:52.784Z,37.2
2017-08-31T00:36:52.824Z,37.2
2017-08-31T00:37:54.086Z,37.2
2017-08-31T00:38:50.979Z,37.3
2017-08-31T00:39:51.074Z,37.3
2017-08-31T00:40:51.444Z,37.3
2017-08-31T00:41:54.575Z,37.3
2017-08-31T00:42:52.949Z,37.3
2017-08-31T00:43:51.267Z,37.3
2017-08-31T00:44:51.354Z,37.3
2017-08-31T00:45:51.426Z,37.3
2017-08-31T00:46:53.628Z,37.3
2017-08-31T00:47:54.609Z,37.3
2017-08-31T00:48:51.465Z,37.3
2017-08-31T00:49:51.296Z,37.2
2017-08-31T00:50:53.233Z,37.3
2017-08-31T00:51:53.325Z,37.3
2017-08-31T00:52:53.813Z,37.2
2017-08-31T00:53:54.802Z,37.2
2017-08-31T00:54:51.781Z,37.2
2017-08-31T00:55:51.674Z,37.2
2017-08-31T00:56:54.982Z,37.2
2017-08-31T00:57:51.688Z,37.2
2017-08-31T00:58:52.211Z,37.2
2017-08-31T00:59:55.308Z,37.2
2017-08-31T01:00:53.953Z,37.2
2017-08-31T01:01:53.803Z,37.2
2017-08-31T01:02:55.495Z,37.2
2017-08-31T01:03:52.271Z,37.2
2017-08-31T01:04:55.921Z,37.3
2017-08-31T01:05:54.308Z,37.3
2017-08-31T01:06:52.448Z,37.3
2017-08-31T01:07:52.557Z,37.3
2017-08-31T01:08:55.710Z,37.3
2017-08-31T01:09:52.461Z,37.3
2017-08-31T01:10:52.729Z,37.3
2017-08-31T01:11:54.420Z,37.3
2017-08-31T01:12:52.785Z,37.2
2017-08-31T01:13:52.874Z,37.2
2017-08-31T01:14:54.575Z,37.2
2017-08-31T01:15:56.230Z,37.2
2017-08-31T01:16:56.652Z,37.2
2017-08-31T01:17:53.004Z,37.2
2017-08-31T01:18:54.769Z,37.2
2017-08-31T01:19:53.099Z,37.2
2017-08-31T01:20:53.022Z,37.2
2017-08-31T01:21:53.225Z,37.2
2017-08-31T01:22:53.710Z,37.2
2017-08-31T01:23:53.397Z,37.2
2017-08-31T01:24:53.253Z,37.2
2017-08-31T01:25:53.300Z,37.2
2017-08-31T01:26:53.470Z,37.2
2017-08-31T01:27:56.595Z,37.2
2017-08-31T01:28:55.482Z,37.2
2017-08-31T01:29:56.920Z,37.2
2017-08-31T01:30:56.952Z,37.2
2017-08-31T01:31:53.485Z,37.2
2017-08-31T01:32:55.532Z,37.2
2017-08-31T01:33:53.563Z,37.2
2017-08-31T01:34:54.021Z,37.2
2017-08-31T01:35:53.630Z,37.2
2017-08-31T01:36:55.860Z,37.2
2017-08-31T01:37:57.225Z,37.2
2017-08-31T01:38:53.718Z,37.2
2017-08-31T01:39:53.930Z,37.2
2017-08-31T01:40:54.244Z,37.2
2017-08-31T01:41:53.985Z,37.2
2017-08-31T01:42:55.727Z,37.2
2017-08-31T01:43:55.877Z,37.2
2017-08-31T01:44:57.472Z,37.2
2017-08-31T01:45:54.181Z,37.2
2017-08-31T01:46:56.187Z,37.2
2017-08-31T01:47:57.589Z,37.2
2017-08-31T01:48:57.598Z,37.2
2017-08-31T01:49:57.608Z,37.2
2017-08-31T01:50:56.308Z,37.2
2017-08-31T01:51:54.274Z,37.2
2017-08-31T01:52:56.761Z,37.3
2017-08-31T01:53:57.958Z,37.2
2017-08-31T01:54:58.025Z,37.2
2017-08-31T01:55:54.784Z,37.2
2017-08-31T01:56:56.753Z,37.2
2017-08-31T01:57:58.171Z,37.2
2017-08-31T01:58:55.342Z,37.2
2017-08-31T01:59:55.655Z,37.2
2017-08-31T02:00:58.224Z,37.2
2017-08-31T02:01:55.157Z,37.2
2017-08-31T02:02:57.129Z,37.2
2017-08-31T02:03:58.407Z,37.2
2017-08-31T02:04:57.588Z,37.2
2017-08-31T02:05:55.345Z,37.2
2017-08-31T02:06:57.298Z,37.2
2017-08-31T02:07:57.098Z,37.2
2017-08-31T02:08:55.389Z,37.2
2017-08-31T02:09:55.455Z,37.2
2017-08-31T02:10:57.695Z,37.2
2017-08-31T02:11:55.504Z,37.2
2017-08-31T02:12:55.766Z,37.2
2017-08-31T02:13:55.804Z,37.2
2017-08-31T02:14:55.844Z,37.2
2017-08-31T02:22:40.699Z,37.3
2017-08-31T02:23:36.236Z,37.3
2017-08-31T02:24:36.291Z,37.3
2017-08-31T02:25:36.172Z,37.3
2017-08-31T02:26:38.866Z,37.3
2017-08-31T02:27:36.416Z,37.3
2017-08-31T02:28:36.918Z,37.3
2017-08-31T02:29:39.025Z,37.3
2017-08-31T02:30:37.558Z,37.3
2017-08-31T02:31:39.778Z,37.3
2017-08-31T02:32:38.681Z,37.3
2017-08-31T02:33:38.205Z,37.3
2017-08-31T02:34:38.211Z,37.3
2017-08-31T02:35:37.036Z,37.3
2017-08-31T02:36:38.739Z,37.3
2017-08-31T02:37:37.048Z,37.3
2017-08-31T02:38:37.832Z,37.3
2017-08-31T02:39:40.135Z,37.3
2017-08-31T02:40:37.912Z,37.3
2017-08-31T02:41:36.883Z,37.3
2017-08-31T02:42:40.247Z,37.3
2017-08-31T02:43:36.931Z,37.3
2017-08-31T02:44:36.921Z,37.2
2017-08-31T02:45:40.538Z,37.2
2017-08-31T02:46:40.684Z,37.2
2017-08-31T02:47:37.170Z,37.2
2017-08-31T02:48:40.530Z,37.2
2017-08-31T02:49:37.246Z,37.2
2017-08-31T02:50:37.358Z,37.2
2017-08-31T02:51:37.282Z,37.2
2017-08-31T02:52:37.875Z,37.2
2017-08-31T02:53:37.444Z,37.2
2017-08-31T02:54:37.713Z,37.2
2017-08-31T02:55:37.711Z,37.2
2017-08-31T02:56:37.605Z,37.2
2017-08-31T02:57:37.699Z,37.2
2017-08-31T02:58:41.511Z,37.2
2017-08-31T02:59:37.943Z,37.2
2017-08-31T03:00:39.940Z,37.2
2017-08-31T03:01:37.948Z,37.2
2017-08-31T03:02:38.052Z,37.2
2017-08-31T03:03:38.384Z,37.2
2017-08-31T03:04:40.454Z,37.2
2017-08-31T03:05:38.409Z,37.2
2017-08-31T03:06:41.451Z,37.2
2017-08-31T03:07:38.363Z,37.2
2017-08-31T03:08:40.344Z,37.2
2017-08-31T03:09:38.513Z,37.2
2017-08-31T03:10:43.143Z,37.2
2017-08-31T03:11:38.459Z,37.2
2017-08-31T03:12:38.729Z,37.2
2017-08-31T03:13:38.620Z,37.2
2017-08-31T03:14:41.935Z,37.2
2017-08-31T03:15:42.005Z,37.2
2017-08-31T03:16:41.094Z,37.2
2017-08-31T03:17:42.272Z,37.2
2017-08-31T03:18:38.852Z,37.2
2017-08-31T03:19:39.049Z,37.2
2017-08-31T03:20:39.087Z,37.2
2017-08-31T03:21:39.098Z,37.2
2017-08-31T03:22:39.254Z,37.2
2017-08-31T03:23:39.033Z,37.2
2017-08-31T03:24:40.984Z,37.2
2017-08-31T03:25:42.666Z,37.2
2017-08-31T03:26:41.342Z,36.9
2017-08-31T03:27:39.232Z,36.7
2017-08-31T03:28:41.502Z,36.5
2017-08-31T03:29:39.333Z,36.3
2017-08-31T03:30:41.514Z,36.2
2017-08-31T03:31:41.529Z,36.1
2017-08-31T03:32:42.825Z,36
2017-08-31T03:33:41.442Z,36
2017-08-31T03:34:40.041Z,35.9
2017-08-31T03:35:39.833Z,35.9
2017-08-31T03:36:39.709Z,35.8
2017-08-31T03:37:41.848Z,35.8
2017-08-31T03:38:39.778Z,35.8
2017-08-31T03:39:39.843Z,35.7
2017-08-31T03:40:43.441Z,35.7
2017-08-31T03:41:40.098Z,35.7
2017-08-31T03:42:43.476Z,35.6
2017-08-31T03:43:43.338Z,35.6
2017-08-31T03:44:43.418Z,35.6
2017-08-31T03:45:40.298Z,35.6
2017-08-31T03:46:40.654Z,35.7
2017-08-31T03:47:40.227Z,35.8
2017-08-31T03:48:42.169Z,35.9
2017-08-31T03:49:40.281Z,36
2017-08-31T03:50:43.734Z,36.1
2017-08-31T03:51:43.926Z,36.1
2017-08-31T03:52:44.037Z,36.1
2017-08-31T03:53:40.465Z,36.2
2017-08-31T03:54:44.070Z,36.2
2017-08-31T03:55:44.048Z,36.2
2017-08-31T03:56:40.538Z,36.2
2017-08-31T03:57:44.160Z,36.2
2017-08-31T03:58:42.849Z,36.2
2017-08-31T03:59:42.896Z,36.2
2017-08-31T04:00:42.913Z,36.3
2017-08-31T04:01:40.792Z,36.3
2017-08-31T04:02:41.000Z,36.3
2017-08-31T04:03:41.109Z,36.3
2017-08-31T04:04:43.205Z,36.3
2017-08-31T04:05:41.204Z,36.3
2017-08-31T04:06:43.281Z,36.3
2017-08-31T04:07:41.317Z,36.3
2017-08-31T04:08:41.447Z,36.3
2017-08-31T04:09:44.540Z,36.3
2017-08-31T04:10:43.624Z,36.3
2017-08-31T04:11:43.375Z,36.3
2017-08-31T04:12:41.304Z,36.3
2017-08-31T04:13:43.463Z,36.3
2017-08-31T04:14:44.736Z,36.3
2017-08-31T04:15:44.843Z,36.3
2017-08-31T04:16:41.765Z,36.3
2017-08-31T04:17:43.655Z,36.3
2017-08-31T04:18:43.509Z,36.3
2017-08-31T04:19:41.648Z,36.3
2017-08-31T04:20:41.712Z,36.3
2017-08-31T04:21:41.711Z,36.3
2017-08-31T04:22:42.025Z,36.3
2017-08-31T04:23:41.994Z,36.3
2017-08-31T04:24:45.172Z,36.3
2017-08-31T04:25:43.804Z,36.3
2017-08-31T04:26:41.960Z,36.3
2017-08-31T04:27:45.314Z,36.3
2017-08-31T04:28:42.274Z,36.3
2017-08-31T04:29:45.348Z,36.3
2017-08-31T04:30:42.060Z,36.3
2017-08-31T04:31:45.464Z,36.3
2017-08-31T04:32:42.366Z,36.3
2017-08-31T04:33:42.209Z,36.4
2017-08-31T04:34:42.741Z,36.4
2017-08-31T04:35:44.227Z,36.4
2017-08-31T04:36:45.682Z,36.4
2017-08-31T04:37:42.449Z,36.4
2017-08-31T04:38:44.329Z,36.4
2017-08-31T04:39:42.671Z,36.4
2017-08-31T04:40:46.371Z,36.4
2017-08-31T04:41:42.706Z,36.4
2017-08-31T04:42:45.805Z,36.4
2017-08-31T04:43:42.730Z,36.4
2017-08-31T04:44:42.828Z,36.4
2017-08-31T04:45:42.814Z,36.4
2017-08-31T04:46:45.013Z,36.4
2017-08-31T04:47:46.011Z,36.4
2017-08-31T04:48:42.713Z,36.4
2017-08-31T04:49:44.934Z,36.4
2017-08-31T04:50:43.099Z,36.4
2017-08-31T04:51:44.885Z,36.4
2017-08-31T04:52:46.804Z,36.4
2017-08-31T04:53:43.019Z,36.4
2017-08-31T04:54:43.115Z,36.4
2017-08-31T04:55:46.641Z,36.4
2017-08-31T04:56:45.295Z,36.4
2017-08-31T04:57:43.280Z,36.4
2017-08-31T04:58:46.985Z,36.4
2017-08-31T04:59:47.308Z,36.4
2017-08-31T05:00:44.621Z,36.4
2017-08-31T05:01:43.772Z,36.5
2017-08-31T05:02:43.746Z,36.5
2017-08-31T05:03:45.505Z,36.5
2017-08-31T05:04:44.772Z,36.5
2017-08-31T05:05:47.235Z,36.5
2017-08-31T05:06:43.789Z,36.5
2017-08-31T05:07:47.101Z,36.5
2017-08-31T05:08:43.843Z,36.5
2017-08-31T05:09:47.243Z,36.5
2017-08-31T05:10:47.767Z,36.5
2017-08-31T05:11:43.998Z,36.5
2017-08-31T05:12:45.974Z,36.5
2017-08-31T05:13:44.313Z,36.4
2017-08-31T05:14:44.360Z,36.4
2017-08-31T05:15:44.390Z,36.4
2017-08-31T05:16:45.295Z,36.5
2017-08-31T05:17:44.994Z,36.5
2017-08-31T05:18:47.856Z,36.5
2017-08-31T05:19:47.936Z,36.5
2017-08-31T05:20:47.823Z,36.5
2017-08-31T05:21:45.381Z,36.5
2017-08-31T05:22:45.153Z,36.5
2017-08-31T05:23:48.589Z,36.5
2017-08-31T05:24:45.010Z,36.5
2017-08-31T05:25:48.171Z,36.5
2017-08-31T05:26:45.047Z,36.5
2017-08-31T05:27:48.231Z,36.5
2017-08-31T05:28:48.511Z,36.5
2017-08-31T05:29:45.153Z,36.5
2017-08-31T05:30:45.058Z,36.5
2017-08-31T05:31:45.168Z,36.5
2017-08-31T05:32:45.359Z,36.5
2017-08-31T05:33:45.297Z,36.5
2017-08-31T05:34:45.549Z,36.5
2017-08-31T05:35:45.548Z,36.5
2017-08-31T05:36:45.493Z,36.5
2017-08-31T05:37:46.617Z,36.5
2017-08-31T05:38:48.783Z,36.5
2017-08-31T05:39:47.678Z,36.5
2017-08-31T05:40:49.125Z,36.5
2017-08-31T05:41:48.890Z,36.5
2017-08-31T05:42:48.892Z,36.5
2017-08-31T05:43:49.181Z,36.5
2017-08-31T05:44:47.866Z,36.6
2017-08-31T05:45:49.089Z,36.6
2017-08-31T05:46:48.027Z,36.6
2017-08-31T05:47:48.009Z,36.6
2017-08-31T05:48:45.941Z,36.6
2017-08-31T05:49:48.137Z,36.6
2017-08-31T05:50:46.309Z,36.6
2017-08-31T05:51:46.414Z,36.6
2017-08-31T05:52:46.552Z,36.6
2017-08-31T05:53:48.386Z,36.6
2017-08-31T05:54:48.207Z,36.6
2017-08-31T05:55:46.348Z,36.6
2017-08-31T05:56:48.467Z,36.6
2017-08-31T05:57:46.678Z,36.6
2017-08-31T05:58:47.136Z,36.6
2017-08-31T05:59:48.416Z,36.5
2017-08-31T06:00:49.956Z,36.6
2017-08-31T06:01:50.218Z,36.5
2017-08-31T06:02:48.850Z,36.6
2017-08-31T06:03:46.773Z,36.6
2017-08-31T06:04:47.151Z,36.6
2017-08-31T06:05:50.408Z,36.6
2017-08-31T06:06:46.953Z,36.6
2017-08-31T06:07:47.162Z,36.6
2017-08-31T06:08:50.545Z,36.6
2017-08-31T06:09:48.935Z,36.6
2017-08-31T06:10:51.601Z,36.6
2017-08-31T06:11:47.149Z,36.6
2017-08-31T06:12:47.249Z,36.6
2017-08-31T06:13:51.990Z,36.6
2017-08-31T06:14:52.781Z,36.6
2017-08-31T06:15:51.253Z,36.6
2017-08-31T06:16:48.528Z,36.6
2017-08-31T06:17:49.925Z,36.6
2017-08-31T06:18:51.124Z,36.6
2017-08-31T06:19:47.743Z,36.6
2017-08-31T06:20:48.680Z,36.6
2017-08-31T06:21:47.904Z,36.6
2017-08-31T06:22:48.056Z,36.6
2017-08-31T06:23:50.059Z,36.6
2017-08-31T06:24:48.065Z,36.6
2017-08-31T06:25:50.036Z,36.6
2017-08-31T06:26:50.026Z,36.6
2017-08-31T06:27:50.119Z,36.6
2017-08-31T06:28:51.813Z,36.6
2017-08-31T06:29:48.134Z,36.6
2017-08-31T06:30:48.142Z,36.6
2017-08-31T06:31:50.827Z,36.6
2017-08-31T06:32:48.507Z,36.6
2017-08-31T06:33:48.260Z,36.6
2017-08-31T06:34:50.759Z,36.6
2017-08-31T06:35:49.002Z,36.6
2017-08-31T06:36:48.535Z,36.6
2017-08-31T06:37:52.265Z,36.6
2017-08-31T06:38:50.886Z,36.6
2017-08-31T06:39:50.968Z,36.6
2017-08-31T06:40:52.282Z,36.6
2017-08-31T06:41:50.649Z,36.6
2017-08-31T06:42:52.769Z,36.6
2017-08-31T06:43:48.827Z,36.6
2017-08-31T06:44:52.260Z,36.6
2017-08-31T06:45:48.986Z,36.6
2017-08-31T06:46:49.251Z,36.6
2017-08-31T06:47:51.173Z,36.6
2017-08-31T06:48:49.137Z,36.6
2017-08-31T06:49:53.096Z,36.6
2017-08-31T06:50:49.317Z,36.6
2017-08-31T06:51:49.462Z,36.6
2017-08-31T06:52:49.918Z,36.6
2017-08-31T06:53:51.596Z,36.6
2017-08-31T06:54:49.523Z,36.6
2017-08-31T06:55:51.823Z,36.6
2017-08-31T06:56:52.995Z,36.6
2017-08-31T06:57:52.966Z,36.6
2017-08-31T06:58:54.089Z,36.6
2017-08-31T06:59:49.967Z,36.6
2017-08-31T07:00:51.927Z,36.6
2017-08-31T07:01:53.595Z,36.6
2017-08-31T07:02:50.081Z,36.6
2017-08-31T07:03:49.892Z,36.6
2017-08-31T07:04:50.389Z,36.6
2017-08-31T07:05:54.089Z,36.6
2017-08-31T07:06:51.989Z,36.6
2017-08-31T07:07:54.602Z,36.6
2017-08-31T07:08:53.710Z,36.6
2017-08-31T07:09:50.203Z,36.6
2017-08-31T07:10:52.499Z,36.6
2017-08-31T07:11:51.268Z,36.6
2017-08-31T07:12:50.568Z,36.6
2017-08-31T07:13:52.549Z,36.6
2017-08-31T07:14:50.668Z,36.6
2017-08-31T07:15:52.562Z,36.6
2017-08-31T07:16:54.318Z,36.6
2017-08-31T07:17:52.645Z,36.6
2017-08-31T07:18:52.453Z,36.6
2017-08-31T07:19:50.578Z,36.6
2017-08-31T07:20:53.957Z,36.6
2017-08-31T07:21:51.496Z,36.6
2017-08-31T07:22:53.154Z,36.6
2017-08-31T07:23:54.557Z,36.6
2017-08-31T07:24:54.325Z,36.6
2017-08-31T07:25:51.023Z,36.6
2017-08-31T07:26:54.128Z,36.6
2017-08-31T07:27:51.592Z,36.6
2017-08-31T07:28:54.800Z,36.6
2017-08-31T07:29:54.545Z,36.6
2017-08-31T07:30:56.015Z,36.6
2017-08-31T07:31:51.402Z,36.6
2017-08-31T07:32:54.561Z,36.6
2017-08-31T07:33:51.411Z,36.6
2017-08-31T07:34:53.688Z,36.6
2017-08-31T07:35:51.604Z,36.6
2017-08-31T07:36:53.649Z,36.6
2017-08-31T07:37:55.200Z,36.6
2017-08-31T07:38:53.528Z,36.6
2017-08-31T07:39:53.762Z,36.6
2017-08-31T07:40:55.988Z,36.6
2017-08-31T07:41:51.857Z,36.6
2017-08-31T07:42:53.775Z,36.6
2017-08-31T07:43:54.998Z,36.6
2017-08-31T07:44:55.069Z,36.5
2017-08-31T07:45:52.433Z,36.6
2017-08-31T07:46:53.018Z,36.6
2017-08-31T07:47:51.882Z,36.5
2017-08-31T07:48:51.898Z,36.6
2017-08-31T07:49:52.096Z,36.5
2017-08-31T07:50:52.001Z,36.5
2017-08-31T07:51:52.243Z,36.5
2017-08-31T07:52:54.450Z,36.5
2017-08-31T07:53:52.316Z,36.5
2017-08-31T07:54:54.348Z,36.5
2017-08-31T07:55:52.496Z,36.5
2017-08-31T07:56:55.669Z,36.5
2017-08-31T07:57:54.331Z,36.5
2017-08-31T07:58:52.696Z,36.5
2017-08-31T07:59:56.129Z,36.5
2017-08-31T08:00:56.180Z,36.5
2017-08-31T08:01:54.844Z,36.5
2017-08-31T08:02:52.711Z,36.4
2017-08-31T08:03:56.091Z,36.4
2017-08-31T08:04:53.243Z,36.5
2017-08-31T08:05:56.066Z,36.5
2017-08-31T08:06:57.097Z,36.5
2017-08-31T08:07:53.075Z,36.4
2017-08-31T08:08:55.068Z,36.5
2017-08-31T08:09:52.994Z,36.5
2017-08-31T08:10:56.698Z,36.5
2017-08-31T08:11:55.763Z,36.5
2017-08-31T08:12:53.428Z,36.5
2017-08-31T08:13:55.189Z,36.5
2017-08-31T08:14:55.259Z,36.5
2017-08-31T08:15:53.546Z,36.5
2017-08-31T08:16:53.402Z,36.5
2017-08-31T08:17:55.576Z,36.5
2017-08-31T08:18:53.697Z,36.5
2017-08-31T08:19:55.751Z,36.5
2017-08-31T08:20:56.095Z,36.5
2017-08-31T08:21:53.899Z,36.5
2017-08-31T08:22:57.843Z,36.5
2017-08-31T08:23:54.023Z,36.5
2017-08-31T08:24:57.206Z,36.5
2017-08-31T08:25:54.103Z,36.5
2017-08-31T08:26:56.194Z,36.5
2017-08-31T08:27:58.845Z,36.4
2017-08-31T08:28:54.809Z,36.4
2017-08-31T08:29:54.115Z,36.4
2017-08-31T08:30:56.289Z,36.5
2017-08-31T08:31:54.240Z,36.4
2017-08-31T08:32:55.346Z,36.4
2017-08-31T08:33:54.251Z,36.4
2017-08-31T08:34:57.587Z,36.4
2017-08-31T08:35:56.476Z,36.4
2017-08-31T08:36:57.861Z,36.4
2017-08-31T08:37:54.619Z,36.4
2017-08-31T08:38:57.294Z,36.4
2017-08-31T08:39:54.545Z,36.4
2017-08-31T08:40:58.279Z,36.4
2017-08-31T08:41:54.790Z,36.4
2017-08-31T08:42:54.817Z,36.4
2017-08-31T08:43:54.843Z,36.4
2017-08-31T08:44:57.299Z,36.4
2017-08-31T08:45:58.717Z,36.4
2017-08-31T08:46:54.777Z,36.4
2017-08-31T08:47:59.540Z,36.4
2017-08-31T08:48:55.868Z,36.4
2017-08-31T08:49:54.891Z,36.4
2017-08-31T08:50:55.213Z,36.4
2017-08-31T08:51:58.404Z,36.4
2017-08-31T08:52:57.292Z,36.4
2017-08-31T08:53:55.341Z,36.4
2017-08-31T08:54:56.078Z,36.4
2017-08-31T08:55:55.279Z,36.4
2017-08-31T08:56:56.513Z,36.4
2017-08-31T08:57:55.466Z,36.4
2017-08-31T08:58:58.801Z,36.4
2017-08-31T08:59:57.509Z,36.4
2017-08-31T09:00:57.873Z,36.4
2017-08-31T09:01:57.648Z,36.4
2017-08-31T09:02:59.368Z,36.3
2017-08-31T09:03:55.895Z,36.4
2017-08-31T09:04:55.846Z,36.4
2017-08-31T09:05:56.047Z,36.4
2017-08-31T09:06:55.882Z,36.4
2017-08-31T09:07:58.052Z,36.4
2017-08-31T09:08:57.962Z,36.4
2017-08-31T09:09:56.043Z,36.4
2017-08-31T09:10:56.332Z,36.4
2017-08-31T09:11:56.194Z,36.3
2017-08-31T09:12:58.653Z,36.3
2017-08-31T09:13:56.314Z,36.3
2017-08-31T09:14:59.704Z,36.3
2017-08-31T09:15:59.733Z,36.3
2017-08-31T09:16:56.721Z,36.3
2017-08-31T09:18:03.092Z,36.3
2017-08-31T09:18:58.642Z,36.3
2017-08-31T09:19:58.703Z,36.3
2017-08-31T09:20:59.999Z,36.3
2017-08-31T09:21:56.968Z,36.3
2017-08-31T09:22:56.917Z,36.3
2017-08-31T09:23:58.273Z,36.2
2017-08-31T09:25:01.149Z,36.3
2017-08-31T09:25:57.658Z,36.2
2017-08-31T09:26:59.275Z,36.2
2017-08-31T09:28:01.147Z,36.2
2017-08-31T09:29:00.740Z,36.2
2017-08-31T09:29:57.450Z,36.2
2017-08-31T09:30:57.367Z,36.2
2017-08-31T09:31:57.507Z,36.2
2017-08-31T09:33:01.537Z,36.2
2017-08-31T09:33:57.443Z,36.2
2017-08-31T09:34:59.365Z,36.1
2017-08-31T09:36:01.249Z,36.2
2017-08-31T09:36:59.457Z,36.2
2017-08-31T09:38:01.028Z,36.2
2017-08-31T09:38:57.658Z,36.2
2017-08-31T09:40:01.253Z,36.2
2017-08-31T09:40:59.903Z,36.2
2017-08-31T09:41:58.015Z,36.2
2017-08-31T09:43:00.048Z,36.2
2017-08-31T09:44:01.509Z,36.2
2017-08-31T09:45:04.688Z,36.1
2017-08-31T09:45:58.037Z,36.1
2017-08-31T09:47:01.400Z,36.1
2017-08-31T09:47:58.201Z,36.1
2017-08-31T09:49:00.328Z,36.1
2017-08-31T09:49:58.970Z,36.1
2017-08-31T09:50:58.278Z,36
2017-08-31T09:51:58.261Z,36
2017-08-31T09:53:01.823Z,36
2017-08-31T09:53:58.543Z,36
2017-08-31T09:55:01.888Z,36
2017-08-31T09:55:58.388Z,36
2017-08-31T09:57:00.359Z,36
2017-08-31T09:57:58.439Z,35.9
2017-08-31T09:59:01.856Z,35.9
2017-08-31T10:00:04.319Z,35.9
2017-08-31T10:00:58.635Z,35.9
2017-08-31T10:02:01.220Z,35.9
2017-08-31T10:03:00.507Z,35.9
2017-08-31T10:03:58.707Z,35.9
2017-08-31T10:05:02.268Z,35.9
2017-08-31T10:05:58.690Z,35.9
2017-08-31T10:07:00.801Z,35.9
2017-08-31T10:07:58.795Z,35.9
2017-08-31T10:09:01.398Z,35.9
2017-08-31T10:10:00.754Z,35.9
2017-08-31T10:10:58.920Z,35.9
2017-08-31T10:11:59.195Z,35.9
2017-08-31T10:13:01.162Z,35.9
2017-08-31T10:14:02.430Z,35.9
2017-08-31T10:15:00.381Z,35.8
2017-08-31T10:16:03.326Z,35.8
2017-08-31T10:17:04.282Z,35.8
2017-08-31T10:18:02.658Z,35.8
2017-08-31T10:19:02.676Z,35.8
2017-08-31T10:19:59.527Z,35.8
2017-08-31T10:21:01.508Z,35.8
2017-08-31T10:21:59.402Z,35.8
2017-08-31T10:22:59.681Z,35.7
2017-08-31T10:23:59.761Z,35.7
2017-08-31T10:25:02.839Z,35.7
2017-08-31T10:26:03.119Z,35.7
2017-08-31T10:27:02.310Z,35.7
2017-08-31T10:27:59.679Z,35.7
2017-08-31T10:29:01.575Z,35.7
2017-08-31T10:30:03.088Z,35.7
2017-08-31T10:31:03.940Z,35.7
2017-08-31T10:32:00.104Z,35.8
2017-08-31T10:33:02.724Z,35.8
2017-08-31T10:33:59.996Z,35.8
2017-08-31T10:35:02.795Z,35.8
2017-08-31T10:36:04.308Z,35.8
2017-08-31T10:37:01.444Z,35.8
2017-08-31T10:38:00.293Z,35.8
2017-08-31T10:39:01.680Z,35.8
2017-08-31T10:40:02.813Z,35.8
2017-08-31T10:41:01.675Z,35.7
2017-08-31T10:42:04.548Z,35.7
2017-08-31T10:43:00.544Z,35.7
2017-08-31T10:44:03.682Z,35.8
2017-08-31T10:45:03.172Z,35.7
2017-08-31T10:46:02.407Z,35.7
2017-08-31T10:47:01.305Z,35.7
2017-08-31T10:48:02.747Z,35.7
2017-08-31T10:49:03.934Z,35.7
2017-08-31T10:50:04.044Z,35.7
2017-08-31T10:51:02.483Z,35.7
2017-08-31T10:52:04.109Z,35.7
2017-08-31T10:53:04.827Z,35.7
2017-08-31T10:54:05.706Z,35.7
2017-08-31T10:55:01.104Z,35.7
2017-08-31T10:56:04.328Z,35.7
2017-08-31T10:57:03.286Z,35.7
2017-08-31T10:58:01.416Z,35.7
2017-08-31T10:59:03.413Z,35.6
2017-08-31T11:00:03.219Z,35.6
2017-08-31T11:01:04.604Z,35.6
2017-08-31T11:02:03.438Z,35.6
2017-08-31T11:03:01.310Z,35.6
2017-08-31T11:04:01.524Z,35.6
2017-08-31T11:05:02.243Z,35.6
2017-08-31T11:06:04.720Z,35.6
2017-08-31T11:07:02.242Z,35.6
2017-08-31T11:08:06.283Z,35.5
2017-08-31T11:09:04.617Z,35.5
2017-08-31T11:10:03.321Z,35.5
2017-08-31T11:11:02.328Z,35.5
2017-08-31T11:12:06.792Z,35.5
2017-08-31T11:13:03.347Z,35.5
2017-08-31T11:14:03.913Z,35.5
2017-08-31T11:15:02.099Z,35.5
2017-08-31T11:16:03.713Z,35.5
2017-08-31T11:17:06.772Z,35.5
2017-08-31T11:18:02.909Z,35.5
2017-08-31T11:19:04.522Z,35.5
2017-08-31T11:20:02.635Z,35.5
2017-08-31T11:21:02.449Z,35.5
2017-08-31T11:22:04.554Z,35.6
2017-08-31T11:23:05.012Z,35.6
2017-08-31T11:24:06.061Z,35.6
2017-08-31T11:25:05.941Z,35.6
2017-08-31T11:26:02.549Z,35.6
2017-08-31T11:27:05.219Z,35.6
2017-08-31T11:28:04.726Z,35.6
2017-08-31T11:29:04.751Z,35.6
2017-08-31T11:30:03.952Z,35.6
2017-08-31T11:31:02.930Z,35.5
2017-08-31T11:32:06.839Z,35.5
2017-08-31T11:33:05.195Z,35.5
2017-08-31T11:34:06.716Z,35.5
2017-08-31T11:35:06.744Z,35.5
2017-08-31T11:36:03.219Z,35.5
2017-08-31T11:37:04.071Z,35.5
2017-08-31T11:38:03.416Z,35.4
2017-08-31T11:39:07.467Z,35.4
2017-08-31T11:40:03.430Z,35.4
2017-08-31T11:41:07.348Z,35.4
2017-08-31T11:42:03.556Z,35.4
2017-08-31T11:43:05.468Z,35.4
2017-08-31T11:44:03.669Z,35.4
2017-08-31T11:45:14.299Z,35.4
2017-08-31T11:46:05.851Z,35.4
2017-08-31T11:47:05.898Z,35.4
2017-08-31T11:48:03.744Z,35.4
2017-08-31T11:49:07.774Z,35.4
2017-08-31T11:50:13.038Z,35.4
2017-08-31T11:51:03.969Z,35.4
2017-08-31T11:52:03.916Z,35.4
2017-08-31T11:53:06.742Z,35.4
2017-08-31T11:54:06.641Z,35.4
2017-08-31T11:55:07.546Z,35.4
2017-08-31T11:56:06.916Z,35.4
2017-08-31T11:57:05.056Z,35.4
2017-08-31T11:58:07.604Z,35.4
2017-08-31T11:59:06.484Z,35.3
2017-08-31T12:00:07.927Z,35.3
2017-08-31T12:01:05.696Z,35.3
2017-08-31T12:02:04.668Z,35.3
2017-08-31T12:03:04.630Z,35.3
2017-08-31T12:04:07.214Z,35.3
2017-08-31T12:05:08.205Z,35.3
2017-08-31T12:06:04.792Z,35.3
2017-08-31T12:07:05.579Z,35.3
2017-08-31T12:08:05.018Z,35.3
2017-08-31T12:09:06.790Z,35.3
2017-08-31T12:10:04.918Z,35.3
2017-08-31T12:11:07.057Z,35.3
2017-08-31T12:12:05.145Z,35.3
2017-08-31T12:13:08.647Z,35.3
2017-08-31T12:14:05.222Z,35.3
2017-08-31T12:15:05.253Z,35.3
2017-08-31T12:16:05.711Z,35.3
2017-08-31T12:17:09.386Z,35.2
2017-08-31T12:18:05.771Z,35.2
2017-08-31T12:19:07.350Z,35.2
2017-08-31T12:20:08.394Z,35.2
2017-08-31T12:21:05.679Z,35.2
2017-08-31T12:22:05.517Z,35.2
2017-08-31T12:23:07.564Z,35.2
2017-08-31T12:24:05.432Z,35.1
2017-08-31T12:25:09.087Z,35.1
2017-08-31T12:26:05.773Z,35.1
2017-08-31T12:27:06.868Z,35.1
2017-08-31T12:28:08.412Z,35.1
2017-08-31T12:29:05.957Z,35.1
2017-08-31T12:30:09.368Z,35.1
2017-08-31T12:31:08.039Z,35.1
2017-08-31T12:32:08.028Z,35.1
2017-08-31T12:33:06.003Z,35.1
2017-08-31T12:34:10.449Z,35
2017-08-31T12:35:10.680Z,35
2017-08-31T12:36:09.415Z,35
2017-08-31T12:37:06.454Z,35
2017-08-31T12:38:07.787Z,34.9
2017-08-31T12:39:09.005Z,34.9
2017-08-31T12:40:10.425Z,34.9
2017-08-31T12:41:06.473Z,34.9
2017-08-31T12:42:08.604Z,34.9
2017-08-31T12:43:09.803Z,34.9
2017-08-31T12:44:06.532Z,34.8
2017-08-31T12:45:07.212Z,34.8
2017-08-31T12:46:08.749Z,34.8
2017-08-31T12:47:09.565Z,34.8
2017-08-31T12:48:08.874Z,34.8
2017-08-31T12:49:07.590Z,34.8
2017-08-31T12:50:07.767Z,34.8
2017-08-31T12:51:08.800Z,34.8
2017-08-31T12:52:07.117Z,34.8
2017-08-31T12:53:07.109Z,34.8
2017-08-31T12:54:07.140Z,34.8
2017-08-31T12:55:10.545Z,34.8
2017-08-31T12:56:07.182Z,34.8
2017-08-31T12:57:09.115Z,34.8
2017-08-31T12:58:09.106Z,34.8
2017-08-31T12:59:07.116Z,34.8
2017-08-31T13:00:09.277Z,34.8
2017-08-31T13:01:07.436Z,34.8
2017-08-31T13:02:07.479Z,34.8
2017-08-31T13:03:09.389Z,34.8
2017-08-31T13:04:09.733Z,34.7
2017-08-31T13:05:09.739Z,34.7
2017-08-31T13:06:10.950Z,34.8
2017-08-31T13:07:07.698Z,34.8
2017-08-31T13:08:09.451Z,34.8
2017-08-31T13:09:07.744Z,34.8
2017-08-31T13:10:11.608Z,34.8
2017-08-31T13:11:08.123Z,34.8
2017-08-31T13:12:07.810Z,34.8
2017-08-31T13:13:09.740Z,34.8
2017-08-31T13:14:07.993Z,34.8
2017-08-31T13:15:08.713Z,34.8
2017-08-31T13:16:08.023Z,34.8
2017-08-31T13:17:08.343Z,34.9
2017-08-31T13:18:11.555Z,34.9
2017-08-31T13:19:08.295Z,34.9
2017-08-31T13:20:08.418Z,34.9
2017-08-31T13:21:08.274Z,34.9
2017-08-31T13:22:08.320Z,34.9
2017-08-31T13:23:10.529Z,34.9
2017-08-31T13:24:08.348Z,34.9
2017-08-31T13:25:08.631Z,34.9
2017-08-31T13:26:08.593Z,34.9
2017-08-31T13:27:08.701Z,34.9